createdAt,value
2019-01-06T00:01:19.322Z,81.90
2019-01-06T00:04:05.713Z,82.10
2019-01-06T00:06:56.516Z,81.40
2019-01-06T00:09:32.571Z,81.10
2019-01-06T00:12:20.421Z,80.60
2019-01-06T00:15:06.909Z,81.20
2019-01-06T00:17:50.994Z,80.80
2019-01-06T00:20:41.369Z,81.60
2019-01-06T00:23:46.895Z,81.60
2019-01-06T00:26:52.566Z,80.80
2019-01-06T00:29:33.684Z,80.40
2019-01-06T00:32:20.068Z,80.90
2019-01-06T00:35:20.256Z,80.90
2019-01-06T00:38:16.395Z,79.90
2019-01-06T00:41:03.203Z,80.10
2019-01-06T00:43:51.133Z,80.70
2019-01-06T00:46:36.922Z,80.70
2019-01-06T00:49:36.572Z,79.70
2019-01-06T00:52:27.273Z,80.50
2019-01-06T00:55:14.056Z,80.40
2019-01-06T00:58:00.203Z,79.70
2019-01-06T01:00:46.235Z,79.90
2019-01-06T01:03:32.649Z,79.70
2019-01-06T01:06:34.601Z,80.30
2019-01-06T01:09:57.571Z,79.70
2019-01-06T01:12:43.425Z,79.60
2019-01-06T01:15:45.630Z,81.00
2019-01-06T01:18:31.730Z,80.80
2019-01-06T01:21:19.255Z,80.40
2019-01-06T01:24:09.314Z,79.80
2019-01-06T01:26:56.165Z,80.40
2019-01-06T01:29:43.787Z,79.70
2019-01-06T01:32:41.232Z,80.50
2019-01-06T01:35:19.869Z,80.30
2019-01-06T01:38:15.922Z,79.70
2019-01-06T01:41:00.457Z,80.60
2019-01-06T01:43:57.094Z,79.70
2019-01-06T01:46:43.398Z,79.70
2019-01-06T01:49:29.398Z,80.30
2019-01-06T01:52:06.280Z,79.80
2019-01-06T01:54:54.047Z,80.10
2019-01-06T01:57:44.081Z,79.70
2019-01-06T02:00:42.659Z,80.30
2019-01-06T02:03:33.164Z,79.70
2019-01-06T02:06:23.388Z,80.40
2019-01-06T02:09:09.695Z,79.70
2019-01-06T02:11:55.157Z,80.30
2019-01-06T02:14:45.134Z,79.60
2019-01-06T02:17:31.127Z,79.60
2019-01-06T02:20:08.935Z,80.30
2019-01-06T02:22:55.203Z,80.40
2019-01-06T02:25:45.928Z,80.20
2019-01-06T02:28:36.835Z,80.90
2019-01-06T02:31:22.415Z,80.00
2019-01-06T02:34:12.831Z,79.80
2019-01-06T02:36:59.657Z,80.10
2019-01-06T02:39:44.593Z,79.50
2019-01-06T02:42:32.158Z,79.50
2019-01-06T02:45:22.414Z,80.10
2019-01-06T02:48:08.623Z,79.50
2019-01-06T02:50:54.741Z,79.80
2019-01-06T02:53:53.307Z,80.30
2019-01-06T02:56:39.700Z,79.50
2019-01-06T02:59:25.064Z,79.60
2019-01-06T03:02:09.502Z,80.20
2019-01-06T03:04:55.530Z,79.60
2019-01-06T03:07:39.884Z,79.60
2019-01-06T03:10:45.490Z,80.20
2019-01-06T03:13:31.632Z,79.60
2019-01-06T03:16:17.811Z,79.70
2019-01-06T03:21:57.184Z,79.40
2019-01-06T03:24:59.788Z,79.90
2019-01-06T03:27:45.862Z,79.40
2019-01-06T03:30:42.520Z,80.00
2019-01-06T03:33:33.006Z,79.50
2019-01-06T03:36:19.736Z,79.10
2019-01-06T03:39:17.133Z,78.50
2019-01-06T03:42:07.153Z,78.80
2019-01-06T03:44:53.229Z,78.90
2019-01-06T03:47:41.088Z,79.40
2019-01-06T03:50:27.293Z,80.10
2019-01-06T03:53:16.360Z,79.20
2019-01-06T03:56:03.267Z,78.80
2019-01-06T04:01:39.467Z,79.00
2019-01-06T04:04:44.231Z,78.40
2019-01-06T04:07:32.603Z,79.10
2019-01-06T04:10:34.061Z,78.80
2019-01-06T04:13:22.257Z,79.50
2019-01-06T04:16:21.544Z,80.00
2019-01-06T04:19:11.725Z,79.40
2019-01-06T04:22:11.110Z,80.00
2019-01-06T04:25:02.343Z,80.10
2019-01-06T04:27:58.279Z,79.50
2019-01-06T04:30:41.397Z,79.40
2019-01-06T04:33:40.710Z,79.60
2019-01-06T04:36:26.492Z,79.50
2019-01-06T04:39:07.966Z,79.90
2019-01-06T04:41:53.761Z,80.90
2019-01-06T04:44:56.149Z,79.60
2019-01-06T04:47:42.323Z,79.50
2019-01-06T04:50:36.871Z,79.60
2019-01-06T04:53:24.274Z,80.20
2019-01-06T04:56:11.470Z,79.60
2019-01-06T04:59:01.876Z,79.60
2019-01-06T05:01:45.521Z,80.20
2019-01-06T05:04:45.049Z,80.20
2019-01-06T05:07:31.836Z,79.60
2019-01-06T05:10:19.363Z,79.70
2019-01-06T05:13:16.623Z,79.60
2019-01-06T05:16:04.363Z,80.20
2019-01-06T05:18:50.747Z,80.10
2019-01-06T05:21:47.044Z,80.10
2019-01-06T05:24:32.728Z,79.90
2019-01-06T05:27:22.855Z,80.00
2019-01-06T05:30:06.838Z,80.40
2019-01-06T05:33:03.645Z,80.80
2019-01-06T05:35:54.352Z,80.10
2019-01-06T05:38:41.892Z,79.60
2019-01-06T05:41:31.488Z,79.60
2019-01-06T05:44:18.680Z,80.20
2019-01-06T05:47:12.367Z,80.10
2019-01-06T05:50:09.084Z,80.00
2019-01-06T05:52:59.193Z,80.30
2019-01-06T05:55:58.591Z,80.30
2019-01-06T05:58:51.259Z,80.00
2019-01-06T06:01:57.401Z,80.00
2019-01-06T06:04:43.718Z,80.40
2019-01-06T06:07:30.508Z,79.60
2019-01-06T06:10:23.975Z,80.10
2019-01-06T06:13:10.004Z,80.70
2019-01-06T06:15:56.083Z,80.10
2019-01-06T06:18:37.916Z,80.60
2019-01-06T06:21:16.751Z,80.60
2019-01-06T06:24:17.807Z,80.50
2019-01-06T06:33:03.765Z,80.30
2019-01-06T06:35:50.492Z,80.50
2019-01-06T06:38:37.903Z,80.90
2019-01-06T06:41:24.921Z,80.60
2019-01-06T06:44:15.041Z,81.10
2019-01-06T06:47:16.922Z,80.80
2019-01-06T06:50:03.268Z,80.60
2019-01-06T06:52:51.365Z,80.60
2019-01-06T06:55:48.474Z,81.00
2019-01-06T06:58:43.168Z,81.10
2019-01-06T07:01:59.064Z,81.60
2019-01-06T07:04:52.826Z,80.70
2019-01-06T07:07:50.805Z,80.90
2019-01-06T07:10:56.766Z,80.30
2019-01-06T07:13:43.296Z,81.00
2019-01-06T07:17:06.036Z,80.40
2019-01-06T07:20:02.795Z,80.00
2019-01-06T07:23:08.856Z,80.90
2019-01-06T07:25:55.459Z,80.20
2019-01-06T07:28:41.781Z,80.30
2019-01-06T07:31:35.562Z,80.30
2019-01-06T07:34:31.666Z,80.20
2019-01-06T07:37:17.650Z,80.00
2019-01-06T07:40:00.668Z,79.80
2019-01-06T07:42:46.762Z,80.80
2019-01-06T07:45:47.899Z,80.60
2019-01-06T07:48:37.537Z,79.40
2019-01-06T07:51:24.319Z,80.10
2019-01-06T07:54:07.931Z,80.30
2019-01-06T07:57:11.256Z,80.00
2019-01-06T07:59:55.509Z,80.00
2019-01-06T08:02:49.061Z,80.50
2019-01-06T08:05:35.389Z,80.50
2019-01-06T08:08:22.895Z,80.50
2019-01-06T08:11:03.142Z,80.60
2019-01-06T08:16:53.360Z,79.40
2019-01-06T08:22:23.734Z,79.50
2019-01-06T08:25:11.658Z,79.80
2019-01-06T08:28:10.154Z,79.30
2019-01-06T08:31:03.110Z,79.50
2019-01-06T08:33:59.633Z,78.80
2019-01-06T08:36:45.956Z,78.10
2019-01-06T08:39:35.725Z,78.00
2019-01-06T08:42:26.213Z,78.40
2019-01-06T08:48:08.440Z,77.60
2019-01-06T08:50:54.650Z,77.50
2019-01-06T08:54:00.019Z,78.10
2019-01-06T08:56:43.403Z,76.90
2019-01-06T08:59:30.956Z,77.50
2019-01-06T09:02:17.506Z,77.30
2019-01-06T09:05:17.000Z,77.30
2019-01-06T09:08:04.289Z,76.70
2019-01-06T09:10:54.819Z,76.70
2019-01-06T09:16:43.315Z,76.20
2019-01-06T09:19:25.877Z,76.40
2019-01-06T09:22:11.899Z,76.70
2019-01-06T09:24:57.322Z,76.50
2019-01-06T09:27:43.314Z,76.40
2019-01-06T09:30:42.171Z,77.10
2019-01-06T09:33:28.378Z,75.90
2019-01-06T09:36:15.673Z,75.20
2019-01-06T09:39:15.185Z,75.70
2019-01-06T09:42:32.558Z,75.30
2019-01-06T09:45:20.481Z,74.70
2019-01-06T09:48:20.252Z,75.20
2019-01-06T09:51:11.466Z,75.70
2019-01-06T09:54:04.883Z,75.30
2019-01-06T09:56:56.477Z,73.70
2019-01-06T09:59:42.652Z,73.50
2019-01-06T10:02:32.735Z,74.00
2019-01-06T10:05:18.932Z,73.40
2019-01-06T10:08:09.320Z,72.50
2019-01-06T10:11:01.977Z,72.40
2019-01-06T10:13:58.169Z,72.60
2019-01-06T10:16:44.490Z,72.00
2019-01-06T10:19:25.377Z,72.00
2019-01-06T10:22:16.423Z,71.40
2019-01-06T10:28:02.746Z,72.30
2019-01-06T10:31:08.556Z,72.70
2019-01-06T10:34:07.969Z,72.50
2019-01-06T10:37:01.227Z,72.70
2019-01-06T10:39:54.167Z,72.70
2019-01-06T10:42:44.572Z,73.30
2019-01-06T10:45:44.002Z,73.10
2019-01-06T10:48:37.805Z,73.80
2019-01-06T10:51:37.943Z,74.00
2019-01-06T10:54:43.322Z,73.60
2019-01-06T10:57:39.599Z,72.80
2019-01-06T11:00:26.986Z,72.80
2019-01-06T11:03:07.614Z,72.30
2019-01-06T11:05:53.820Z,72.20
2019-01-06T11:08:47.034Z,71.90
2019-01-06T11:11:40.386Z,71.90
2019-01-06T11:14:27.949Z,72.30
2019-01-06T11:17:17.723Z,70.60
2019-01-06T11:20:08.079Z,71.30
2019-01-06T11:22:56.951Z,70.80
2019-01-06T11:25:39.846Z,69.40
2019-01-06T11:28:28.373Z,64.50
2019-01-06T11:31:14.940Z,64.10
2019-01-06T11:34:01.245Z,55.90
2019-01-06T11:36:49.267Z,54.00
2019-01-06T11:39:42.861Z,53.80
2019-01-06T11:42:31.809Z,55.90
2019-01-06T11:45:24.864Z,59.40
2019-01-06T11:48:24.189Z,61.80
2019-01-06T11:51:10.891Z,63.90
2019-01-06T11:53:56.748Z,65.20
2019-01-06T11:56:44.336Z,65.70
2019-01-06T11:59:41.396Z,68.00
2019-01-06T12:02:39.215Z,68.30
2019-01-06T12:05:25.839Z,68.40
2019-01-06T12:08:12.334Z,68.60
2019-01-06T12:11:08.856Z,68.50
2019-01-06T12:13:56.523Z,69.00
2019-01-06T12:16:42.700Z,69.20
2019-01-06T12:19:42.637Z,68.70
2019-01-06T12:22:28.907Z,69.10
2019-01-06T12:25:13.467Z,69.50
2019-01-06T12:28:07.251Z,69.40
2019-01-06T12:31:12.987Z,69.30
2019-01-06T12:36:52.686Z,68.50
2019-01-06T12:39:40.325Z,68.00
2019-01-06T12:42:39.815Z,65.40
2019-01-06T12:45:32.342Z,63.80
2019-01-06T12:48:34.639Z,63.30
2019-01-06T12:51:24.826Z,62.80
2019-01-06T12:54:16.783Z,64.20
2019-01-06T12:57:02.936Z,65.10
2019-01-06T12:59:48.616Z,66.60
2019-01-06T13:05:45.290Z,67.20
2019-01-06T13:08:39.022Z,68.40
2019-01-06T13:17:24.962Z,69.90
2019-01-06T13:20:22.371Z,70.40
2019-01-06T13:23:10.131Z,70.50
2019-01-06T13:25:56.717Z,70.30
2019-01-06T13:31:31.651Z,70.60
2019-01-06T13:37:03.103Z,71.10
2019-01-06T13:51:00.033Z,71.60
2019-01-06T13:53:50.258Z,72.80
2019-01-06T13:56:36.022Z,73.20
2019-01-06T13:59:22.509Z,73.40
2019-01-06T14:02:10.035Z,73.50
2019-01-06T14:07:48.242Z,73.10
2019-01-06T14:10:29.562Z,73.00
2019-01-06T14:13:19.495Z,73.00
2019-01-06T14:16:21.822Z,72.90
2019-01-06T14:19:24.826Z,72.90
2019-01-06T14:22:04.915Z,73.70
2019-01-06T14:25:01.298Z,73.00
2019-01-06T14:27:47.301Z,74.30
2019-01-06T14:33:17.281Z,74.90
2019-01-06T14:36:11.304Z,74.80
2019-01-06T14:41:53.841Z,75.80
2019-01-06T14:44:40.754Z,75.60
2019-01-06T14:53:37.971Z,75.20
2019-01-06T14:59:15.912Z,75.50
2019-01-06T15:02:03.495Z,75.30
2019-01-06T15:07:44.374Z,75.30
2019-01-06T15:10:45.732Z,75.90
2019-01-06T15:16:17.789Z,76.60
2019-01-06T15:19:08.872Z,76.50
2019-01-06T15:21:56.172Z,76.90
2019-01-06T15:24:42.293Z,77.40
2019-01-06T15:27:28.273Z,76.90
2019-01-06T15:30:25.425Z,77.20
2019-01-06T15:33:11.460Z,77.60
2019-01-06T15:36:02.628Z,77.70
2019-01-06T15:38:59.253Z,77.40
2019-01-06T15:44:54.776Z,76.70
2019-01-06T15:47:45.897Z,76.70
2019-01-06T15:50:40.270Z,76.70
2019-01-06T15:56:31.483Z,76.20
2019-01-06T15:59:17.747Z,77.00
2019-01-06T16:02:01.608Z,76.30
2019-01-06T16:04:52.337Z,76.30
2019-01-06T16:07:41.687Z,75.70
2019-01-06T16:10:28.686Z,75.70
2019-01-06T16:13:16.427Z,76.20
2019-01-06T16:16:13.688Z,75.80
2019-01-06T16:19:00.698Z,75.80
2019-01-06T16:21:46.517Z,76.60
2019-01-06T16:24:32.909Z,76.30
2019-01-06T16:27:32.920Z,76.10
2019-01-06T16:30:25.419Z,75.90
2019-01-06T16:33:08.082Z,75.50
2019-01-06T16:36:08.021Z,75.60
2019-01-06T16:44:35.012Z,74.80
2019-01-06T16:50:16.190Z,75.10
2019-01-06T16:53:12.831Z,75.80
2019-01-06T16:56:03.695Z,75.30
2019-01-06T16:59:00.782Z,75.40
2019-01-06T17:01:45.005Z,75.30
2019-01-06T17:04:31.951Z,75.30
2019-01-06T17:10:17.154Z,75.80
2019-01-06T17:13:04.186Z,75.30
2019-01-06T17:15:50.564Z,75.70
2019-01-06T17:18:39.914Z,75.30
2019-01-06T17:21:42.843Z,75.50
2019-01-06T17:24:29.222Z,75.70
2019-01-06T17:27:15.771Z,76.00
2019-01-06T17:30:01.886Z,75.70
2019-01-06T17:32:54.262Z,75.60
2019-01-06T17:35:43.650Z,75.70
2019-01-06T17:38:39.664Z,76.10
2019-01-06T17:44:11.038Z,75.50
2019-01-06T17:47:08.477Z,75.80
2019-01-06T17:50:01.867Z,75.80
2019-01-06T17:53:06.853Z,75.90
2019-01-06T17:55:52.750Z,74.60
2019-01-06T17:58:39.953Z,75.00
2019-01-06T18:01:30.597Z,75.60
2019-01-06T18:04:21.628Z,75.60
2019-01-06T18:07:09.758Z,76.30
2019-01-06T18:10:06.525Z,75.60
2019-01-06T18:13:07.994Z,75.60
2019-01-06T18:15:54.914Z,75.80
2019-01-06T18:18:49.005Z,76.10
2019-01-06T18:21:46.131Z,75.20
2019-01-06T18:24:32.010Z,75.30
2019-01-06T18:27:22.609Z,75.70
2019-01-06T18:30:14.241Z,75.80
2019-01-06T18:32:51.703Z,75.20
2019-01-06T18:35:39.437Z,76.20
2019-01-06T18:38:36.318Z,75.20
2019-01-06T18:41:22.532Z,75.10
2019-01-06T18:44:25.282Z,75.70
2019-01-06T18:47:20.676Z,75.60
2019-01-06T18:50:16.948Z,75.50
2019-01-06T18:53:04.252Z,75.60
2019-01-06T18:56:00.587Z,75.60
2019-01-06T18:58:56.657Z,74.90
2019-01-06T19:01:36.745Z,74.40
2019-01-06T19:07:11.740Z,74.20
2019-01-06T19:10:01.604Z,75.10
2019-01-06T19:13:02.555Z,75.10
2019-01-06T19:15:44.770Z,74.10
2019-01-06T19:18:34.847Z,74.50
2019-01-06T19:21:21.642Z,74.50
2019-01-06T19:24:16.911Z,75.00
2019-01-06T19:27:24.363Z,75.10
2019-01-06T19:30:10.661Z,74.40
2019-01-06T19:32:57.007Z,74.60
2019-01-06T19:35:45.725Z,75.00
2019-01-06T19:38:48.077Z,75.10
2019-01-06T19:41:36.564Z,75.10
2019-01-06T19:44:25.510Z,75.40
2019-01-06T19:47:11.948Z,74.60
2019-01-06T19:50:02.500Z,74.00
2019-01-06T20:01:18.783Z,74.00
2019-01-06T20:04:10.092Z,74.10
2019-01-06T20:06:59.978Z,74.80
2019-01-06T20:09:46.500Z,74.80
2019-01-06T20:15:32.193Z,74.20
2019-01-06T20:18:31.812Z,74.20
2019-01-06T20:21:34.333Z,73.50
2019-01-06T20:24:25.292Z,73.10
2019-01-06T20:29:59.922Z,75.10
2019-01-06T20:32:47.317Z,75.50
2019-01-06T20:35:37.780Z,74.90
2019-01-06T20:38:31.156Z,74.90
2019-01-06T20:41:19.087Z,74.50
2019-01-06T20:44:09.665Z,73.70
2019-01-06T20:47:11.720Z,74.10
2019-01-06T20:50:01.842Z,74.60
2019-01-06T20:53:03.052Z,74.50
2019-01-06T20:55:50.087Z,75.30
2019-01-06T20:58:49.904Z,74.90
2019-01-06T21:01:36.145Z,74.80
2019-01-06T21:04:30.153Z,74.70
2019-01-06T21:07:23.639Z,74.90
2019-01-06T21:10:14.266Z,75.30
2019-01-06T21:15:53.099Z,74.30
2019-01-06T21:18:39.835Z,74.60
2019-01-06T21:21:39.283Z,74.50
2019-01-06T21:24:25.435Z,74.50
2019-01-06T21:27:11.177Z,74.60
2019-01-06T21:30:07.215Z,75.40
2019-01-06T21:33:07.040Z,75.00
2019-01-06T21:36:03.785Z,74.20
2019-01-06T21:38:54.751Z,74.50
2019-01-06T21:41:43.154Z,74.30
2019-01-06T21:44:39.868Z,75.40
2019-01-06T21:47:26.802Z,75.30
2019-01-06T21:50:24.873Z,74.50
2019-01-06T21:53:04.806Z,75.10
2019-01-06T21:55:51.437Z,75.50
2019-01-06T21:58:41.840Z,74.60
2019-01-06T22:01:44.842Z,75.10
2019-01-06T22:04:30.928Z,75.40
2019-01-06T22:07:18.845Z,75.10
2019-01-06T22:10:06.905Z,75.20
2019-01-06T22:12:55.172Z,75.80
2019-01-06T22:16:05.957Z,74.90
2019-01-06T22:19:09.724Z,75.30
2019-01-06T22:22:01.561Z,75.20
2019-01-06T22:25:05.827Z,74.90
2019-01-06T22:28:01.056Z,75.10
2019-01-06T22:30:47.076Z,74.60
2019-01-06T22:33:52.301Z,75.10
2019-01-06T22:36:48.921Z,75.50
2019-01-06T22:39:31.319Z,74.60
2019-01-06T22:42:18.390Z,75.10
2019-01-06T22:45:15.137Z,75.00
2019-01-06T22:48:11.683Z,75.00
2019-01-06T22:51:03.869Z,75.40
2019-01-06T22:54:03.034Z,75.40
2019-01-06T22:56:55.055Z,75.40
2019-01-06T22:59:46.901Z,74.50
2019-01-06T23:02:59.033Z,75.40
2019-01-06T23:06:07.625Z,75.70
2019-01-06T23:11:54.125Z,75.50
2019-01-06T23:17:59.421Z,74.80
2019-01-06T23:20:56.483Z,75.40
2019-01-06T23:26:45.449Z,75.10
2019-01-06T23:29:32.768Z,74.90
2019-01-06T23:32:27.458Z,75.40
2019-01-06T23:35:37.146Z,74.90
2019-01-06T23:41:44.013Z,75.10
2019-01-06T23:44:35.119Z,74.70
2019-01-06T23:47:20.942Z,75.00
2019-01-06T23:50:27.112Z,75.30
2019-01-06T23:53:20.359Z,75.30
2019-01-06T23:56:08.165Z,74.00
2019-01-06T23:58:58.322Z,74.00
